Terminal Aerodrome Forecast
Issued by NWS

Home | Current Version | Previous Version | Text Only | Print | Product List | Glossary On
Versions: 1 2 3 4 5 6 7 8 9 10 11 12 13 14 15 16
000
FTUS43 KMPX 281412 AAA
TAFRNH
TAF AMD
KRNH 281412Z 2814/2912 15010KT P6SM OVC007
     FM281800 15012G19KT P6SM OVC011
     FM282300 15005KT 4SM BR OVC009
      TEMPO 2900/2904 3SM -FZDZSN OVC006
     FM290600 31009KT P6SM OVC009
     FM290900 31014G24KT P6SM OVC012=

USA.gov is the U.S. government's official web portal to all federal, state and local government web resources and services.